Forest Falls, CA

12:48 PM PDT on April 26, 2017 (GMT -0700)
Forest Falls | | Change Station
Active Advisory: Wind Advisory

Elev 5449 ft 34.09 °N, 116.92 °W | Updated 28 seconds ago

Clear
Clear
65.5 °F
Feels Like 65.5 °F
N
2.3
Wind Variable Wind from WSW
Gusts 4.0 mph

Today
High -- | Low -- °F
--% Chance of Precip.
Yesterday
High -- | Low -- °F
Precip. -- in
Pressure 30.08 in
Visibility 10.0 miles
Clouds Clear
Dew Point 40.6 °F
Humidity 40%
Rainfall 0.00 in
Snow Depth Not available.
6:03 AM 7:28 PM
New Moon, 0% visible
METAR KL35 261935Z AUTO 21009G15KT 164V224 10SM CLR 15/00 A3008 RMK AO2
Pressure 30.08 in
Visibility 10.0 miles
Clouds Clear
Dew Point 40.6 °F
Humidity 40%
Rainfall 0.00 in
Snow Depth Not available.
6:03 AM 7:28 PM
New Moon, 0% visible
METAR KL35 261935Z AUTO 21009G15KT 164V224 10SM CLR 15/00 A3008 RMK AO2

Get Your Daily Forecast Email!

Thanks for signing up!

Be on the lookout for a verification email in your inbox.

You'll start receiving severe weather alerts in your inbox..

×

10-Day Weather Forecast

Almanac

Astronomy

Apr. 26, 2017 Rise Set
Actual Time
Civil Twilight
Nautical Twilight
Astronomical Twilight
Moon
Length of Visible Light
Length of Day
Tomorrow will be .
, % of the Moon is Illuminated

Today's Extremes

State Highs State Lows

Community

WunderPhotos

WunderBlog® & News

Nearby

Air Quality

  Air Quality AQ Index Pollutant
Not available.

Snow Depth

Station Depth Elevation

Earthquake Activity

City Distance Mag. Time & Date
Minimum magnitude displayed is 2.5.

Coastal Water Temperatures

Place Temperature

Stations

Nearby Weather Stations

Station Location Temp. Windchill Dew Point Humidity Wind Precip. Elev Updated Type
                   

Watches & Warnings

Wind Advisory
Issued: 2:30 AM PDT Apr. 26, 2017 – National Weather Service

... Wind Advisory remains in effect from 1 PM this afternoon to
3 am PDT Thursday...

* winds... areas of westerly winds 25 to 35 mph, with gusts 50 to
60 mph.

* Timing... this afternoon through tonight.

* Location... strongest winds from the Mountain Ridge tops along
Desert Mountain slopes into adjacent desert areas.

* Visibility... locally reduced below 3 miles in blowing sand and
blowing dust in the deserts.

* Impacts... the winds will make driving difficult... especially
for motorists with high profile vehicles. Watch for broken
tree limbs. In the deserts... areas of blowing dust and sand
will reduce visibility at times.

Precautionary/preparedness actions...

A Wind Advisory means that winds of 35 mph are expected. Winds
this strong can make driving difficult... especially for high
profile vehicles. Use extra caution.



Mm